sensor_id;sensor_type;location;lat;lon;timestamp;P1;durP1;ratioP1;P2;durP2;ratioP2
51943;SDS011;37969;53.132;6.370;2024-02-21T00:00:22;21.40;;;4.40;;
51943;SDS011;37969;53.132;6.370;2024-02-21T00:02:50;23.00;;;5.25;;
51943;SDS011;37969;53.132;6.370;2024-02-21T00:05:18;29.33;;;4.88;;
51943;SDS011;37969;53.132;6.370;2024-02-21T00:07:49;21.77;;;4.38;;
51943;SDS011;37969;53.132;6.370;2024-02-21T00:10:16;31.42;;;4.93;;
51943;SDS011;37969;53.132;6.370;2024-02-21T00:12:43;24.23;;;4.95;;
51943;SDS011;37969;53.132;6.370;2024-02-21T00:15:09;21.52;;;4.85;;
51943;SDS011;37969;53.132;6.370;2024-02-21T00:17:42;28.42;;;5.13;;
51943;SDS011;37969;53.132;6.370;2024-02-21T00:20:10;21.38;;;4.72;;
51943;SDS011;37969;53.132;6.370;2024-02-21T00:22:37;23.73;;;5.07;;
51943;SDS011;37969;53.132;6.370;2024-02-21T00:25:03;34.15;;;5.80;;
51943;SDS011;37969;53.132;6.370;2024-02-21T00:27:30;30.52;;;5.47;;
51943;SDS011;37969;53.132;6.370;2024-02-21T00:29:57;29.45;;;5.03;;
51943;SDS011;37969;53.132;6.370;2024-02-21T00:32:23;34.25;;;5.85;;
51943;SDS011;37969;53.132;6.370;2024-02-21T00:34:49;34.65;;;6.90;;
51943;SDS011;37969;53.132;6.370;2024-02-21T00:37:18;25.30;;;5.80;;
51943;SDS011;37969;53.132;6.370;2024-02-21T00:39:47;27.20;;;6.18;;
51943;SDS011;37969;53.132;6.370;2024-02-21T00:42:13;25.70;;;6.93;;
51943;SDS011;37969;53.132;6.370;2024-02-21T00:44:39;35.15;;;7.20;;
51943;SDS011;37969;53.132;6.370;2024-02-21T00:47:06;31.10;;;7.53;;
51943;SDS011;37969;53.132;6.370;2024-02-21T00:49:32;34.30;;;7.82;;
51943;SDS011;37969;53.132;6.370;2024-02-21T00:52:01;24.02;;;6.72;;
51943;SDS011;37969;53.132;6.370;2024-02-21T00:54:29;35.15;;;7.40;;
51943;SDS011;37969;53.132;6.370;2024-02-21T00:56:55;34.60;;;7.80;;
51943;SDS011;37969;53.132;6.370;2024-02-21T00:59:22;27.30;;;7.43;;
51943;SDS011;37969;53.132;6.370;2024-02-21T01:01:48;27.90;;;7.60;;
51943;SDS011;37969;53.132;6.370;2024-02-21T01:04:16;34.42;;;7.50;;
51943;SDS011;37969;53.132;6.370;2024-02-21T01:06:45;27.20;;;6.85;;
51943;SDS011;37969;53.132;6.370;2024-02-21T01:09:11;31.48;;;7.88;;
51943;SDS011;37969;53.132;6.370;2024-02-21T01:11:38;38.53;;;9.43;;
51943;SDS011;37969;53.132;6.370;2024-02-21T01:14:05;34.72;;;8.30;;
51943;SDS011;37969;53.132;6.370;2024-02-21T01:16:31;29.42;;;7.65;;
51943;SDS011;37969;53.132;6.370;2024-02-21T01:18:58;34.67;;;8.13;;
51943;SDS011;37969;53.132;6.370;2024-02-21T01:21:24;30.52;;;8.65;;
51943;SDS011;37969;53.132;6.370;2024-02-21T01:23:56;31.20;;;8.13;;
51943;SDS011;37969;53.132;6.370;2024-02-21T01:26:24;29.95;;;8.13;;
51943;SDS011;37969;53.132;6.370;2024-02-21T01:28:51;45.30;;;9.82;;
51943;SDS011;37969;53.132;6.370;2024-02-21T01:31:17;39.00;;;9.75;;
51943;SDS011;37969;53.132;6.370;2024-02-21T01:33:48;22.77;;;7.10;;
51943;SDS011;37969;53.132;6.370;2024-02-21T01:36:14;34.05;;;8.95;;
51943;SDS011;37969;53.132;6.370;2024-02-21T01:38:43;49.67;;;11.80;;
51943;SDS011;37969;53.132;6.370;2024-02-21T01:41:09;33.97;;;10.32;;
51943;SDS011;37969;53.132;6.370;2024-02-21T01:43:37;31.58;;;8.27;;
51943;SDS011;37969;53.132;6.370;2024-02-21T01:46:06;30.08;;;7.95;;
51943;SDS011;37969;53.132;6.370;2024-02-21T01:48:34;38.17;;;10.05;;
51943;SDS011;37969;53.132;6.370;2024-02-21T01:51:01;25.48;;;8.10;;
51943;SDS011;37969;53.132;6.370;2024-02-21T01:53:31;40.45;;;12.57;;
51943;SDS011;37969;53.132;6.370;2024-02-21T01:56:00;31.85;;;10.25;;
51943;SDS011;37969;53.132;6.370;2024-02-21T01:58:26;25.17;;;9.45;;
51943;SDS011;37969;53.132;6.370;2024-02-21T02:00:54;27.40;;;9.35;;
51943;SDS011;37969;53.132;6.370;2024-02-21T02:03:22;32.93;;;10.23;;
51943;SDS011;37969;53.132;6.370;2024-02-21T02:05:50;33.33;;;9.88;;
51943;SDS011;37969;53.132;6.370;2024-02-21T02:08:19;32.35;;;11.20;;
51943;SDS011;37969;53.132;6.370;2024-02-21T02:10:48;32.47;;;9.35;;
51943;SDS011;37969;53.132;6.370;2024-02-21T02:13:18;38.90;;;8.88;;
51943;SDS011;37969;53.132;6.370;2024-02-21T02:15:48;26.40;;;7.88;;
51943;SDS011;37969;53.132;6.370;2024-02-21T02:18:16;35.75;;;8.20;;
51943;SDS011;37969;53.132;6.370;2024-02-21T02:20:44;33.75;;;6.97;;
51943;SDS011;37969;53.132;6.370;2024-02-21T02:23:20;35.90;;;8.60;;
51943;SDS011;37969;53.132;6.370;2024-02-21T02:25:52;32.75;;;9.07;;
51943;SDS011;37969;53.132;6.370;2024-02-21T02:28:22;33.28;;;8.15;;
51943;SDS011;37969;53.132;6.370;2024-02-21T02:30:49;37.30;;;10.10;;
51943;SDS011;37969;53.132;6.370;2024-02-21T02:33:17;42.58;;;10.65;;
51943;SDS011;37969;53.132;6.370;2024-02-21T02:35:44;33.25;;;9.75;;
51943;SDS011;37969;53.132;6.370;2024-02-21T02:38:12;38.78;;;10.25;;
51943;SDS011;37969;53.132;6.370;2024-02-21T02:40:40;63.53;;;19.95;;
51943;SDS011;37969;53.132;6.370;2024-02-21T02:43:14;49.35;;;14.32;;
51943;SDS011;37969;53.132;6.370;2024-02-21T02:45:41;46.35;;;9.20;;
51943;SDS011;37969;53.132;6.370;2024-02-21T02:48:08;41.55;;;8.80;;
51943;SDS011;37969;53.132;6.370;2024-02-21T02:50:34;65.00;;;19.08;;
51943;SDS011;37969;53.132;6.370;2024-02-21T02:53:02;42.20;;;9.15;;
51943;SDS011;37969;53.132;6.370;2024-02-21T02:55:33;36.38;;;8.63;;
51943;SDS011;37969;53.132;6.370;2024-02-21T02:58:00;36.35;;;9.48;;
51943;SDS011;37969;53.132;6.370;2024-02-21T03:00:28;43.35;;;8.52;;
51943;SDS011;37969;53.132;6.370;2024-02-21T03:02:55;46.78;;;8.55;;
51943;SDS011;37969;53.132;6.370;2024-02-21T03:05:21;37.15;;;9.80;;
51943;SDS011;37969;53.132;6.370;2024-02-21T03:07:48;35.95;;;8.52;;
51943;SDS011;37969;53.132;6.370;2024-02-21T03:10:14;40.70;;;8.43;;
51943;SDS011;37969;53.132;6.370;2024-02-21T03:12:41;35.15;;;8.52;;
51943;SDS011;37969;53.132;6.370;2024-02-21T03:15:12;37.70;;;9.82;;
51943;SDS011;37969;53.132;6.370;2024-02-21T03:17:41;45.47;;;8.95;;
51943;SDS011;37969;53.132;6.370;2024-02-21T03:20:07;50.90;;;10.70;;
51943;SDS011;37969;53.132;6.370;2024-02-21T03:22:37;42.88;;;8.98;;
51943;SDS011;37969;53.132;6.370;2024-02-21T03:25:03;44.40;;;10.13;;
51943;SDS011;37969;53.132;6.370;2024-02-21T03:27:31;43.25;;;9.30;;
51943;SDS011;37969;53.132;6.370;2024-02-21T03:30:00;43.33;;;7.93;;
51943;SDS011;37969;53.132;6.370;2024-02-21T03:32:29;39.87;;;8.93;;
51943;SDS011;37969;53.132;6.370;2024-02-21T03:35:00;36.83;;;8.48;;
51943;SDS011;37969;53.132;6.370;2024-02-21T03:37:27;53.08;;;11.13;;
51943;SDS011;37969;53.132;6.370;2024-02-21T03:39:55;53.65;;;11.80;;
51943;SDS011;37969;53.132;6.370;2024-02-21T03:42:23;38.88;;;9.57;;
51943;SDS011;37969;53.132;6.370;2024-02-21T03:44:50;56.78;;;10.02;;
51943;SDS011;37969;53.132;6.370;2024-02-21T03:47:17;49.88;;;9.95;;
51943;SDS011;37969;53.132;6.370;2024-02-21T03:49:45;51.55;;;10.93;;
51943;SDS011;37969;53.132;6.370;2024-02-21T03:52:11;45.72;;;9.98;;
51943;SDS011;37969;53.132;6.370;2024-02-21T03:54:39;41.78;;;9.63;;
51943;SDS011;37969;53.132;6.370;2024-02-21T03:57:08;47.22;;;8.63;;
51943;SDS011;37969;53.132;6.370;2024-02-21T03:59:36;58.92;;;10.25;;
51943;SDS011;37969;53.132;6.370;2024-02-21T04:02:05;36.30;;;10.37;;
51943;SDS011;37969;53.132;6.370;2024-02-21T04:04:34;38.28;;;9.82;;
51943;SDS011;37969;53.132;6.370;2024-02-21T04:07:04;47.67;;;10.80;;
51943;SDS011;37969;53.132;6.370;2024-02-21T04:09:32;41.00;;;8.50;;
51943;SDS011;37969;53.132;6.370;2024-02-21T04:11:59;48.00;;;10.15;;
51943;SDS011;37969;53.132;6.370;2024-02-21T04:14:26;47.15;;;11.25;;
51943;SDS011;37969;53.132;6.370;2024-02-21T04:16:55;41.40;;;10.02;;
51943;SDS011;37969;53.132;6.370;2024-02-21T04:19:24;43.92;;;12.60;;
51943;SDS011;37969;53.132;6.370;2024-02-21T04:21:50;45.17;;;10.65;;
51943;SDS011;37969;53.132;6.370;2024-02-21T04:24:18;47.17;;;12.23;;
51943;SDS011;37969;53.132;6.370;2024-02-21T04:26:49;41.78;;;11.15;;
51943;SDS011;37969;53.132;6.370;2024-02-21T04:29:17;36.05;;;10.48;;
51943;SDS011;37969;53.132;6.370;2024-02-21T04:31:44;41.05;;;8.75;;
51943;SDS011;37969;53.132;6.370;2024-02-21T04:34:11;47.47;;;9.82;;
51943;SDS011;37969;53.132;6.370;2024-02-21T04:36:37;35.95;;;9.52;;
51943;SDS011;37969;53.132;6.370;2024-02-21T04:39:04;47.97;;;11.25;;
51943;SDS011;37969;53.132;6.370;2024-02-21T04:41:32;46.17;;;10.95;;
51943;SDS011;37969;53.132;6.370;2024-02-21T04:43:59;48.35;;;10.77;;
51943;SDS011;37969;53.132;6.370;2024-02-21T04:46:26;49.33;;;11.00;;
51943;SDS011;37969;53.132;6.370;2024-02-21T04:48:54;43.63;;;10.55;;
51943;SDS011;37969;53.132;6.370;2024-02-21T04:51:21;35.70;;;8.50;;
51943;SDS011;37969;53.132;6.370;2024-02-21T04:53:48;44.97;;;10.00;;
51943;SDS011;37969;53.132;6.370;2024-02-21T04:56:16;42.92;;;9.38;;
51943;SDS011;37969;53.132;6.370;2024-02-21T04:58:42;43.40;;;8.88;;
51943;SDS011;37969;53.132;6.370;2024-02-21T05:01:12;44.22;;;9.52;;
51943;SDS011;37969;53.132;6.370;2024-02-21T05:03:39;49.28;;;10.52;;
51943;SDS011;37969;53.132;6.370;2024-02-21T05:06:05;41.83;;;8.68;;
51943;SDS011;37969;53.132;6.370;2024-02-21T05:08:34;40.20;;;8.88;;
51943;SDS011;37969;53.132;6.370;2024-02-21T05:11:00;49.30;;;9.70;;
51943;SDS011;37969;53.132;6.370;2024-02-21T05:13:30;43.75;;;9.65;;
51943;SDS011;37969;53.132;6.370;2024-02-21T05:15:59;40.58;;;9.88;;
51943;SDS011;37969;53.132;6.370;2024-02-21T05:18:27;41.72;;;9.30;;
51943;SDS011;37969;53.132;6.370;2024-02-21T05:20:53;38.72;;;9.68;;
51943;SDS011;37969;53.132;6.370;2024-02-21T05:23:20;41.28;;;8.57;;
51943;SDS011;37969;53.132;6.370;2024-02-21T05:25:48;44.80;;;9.90;;
51943;SDS011;37969;53.132;6.370;2024-02-21T05:28:15;42.47;;;9.65;;
51943;SDS011;37969;53.132;6.370;2024-02-21T05:30:42;42.53;;;9.82;;
51943;SDS011;37969;53.132;6.370;2024-02-21T05:33:10;47.42;;;10.20;;
51943;SDS011;37969;53.132;6.370;2024-02-21T05:35:38;47.90;;;10.73;;
51943;SDS011;37969;53.132;6.370;2024-02-21T05:38:05;35.50;;;9.30;;
51943;SDS011;37969;53.132;6.370;2024-02-21T05:40:37;32.70;;;9.10;;
51943;SDS011;37969;53.132;6.370;2024-02-21T05:43:04;34.03;;;8.68;;
51943;SDS011;37969;53.132;6.370;2024-02-21T05:45:30;50.60;;;11.50;;
51943;SDS011;37969;53.132;6.370;2024-02-21T05:47:56;47.08;;;10.52;;
51943;SDS011;37969;53.132;6.370;2024-02-21T05:50:26;45.42;;;11.30;;
51943;SDS011;37969;53.132;6.370;2024-02-21T05:52:54;45.00;;;10.63;;
51943;SDS011;37969;53.132;6.370;2024-02-21T05:55:21;44.83;;;9.05;;
51943;SDS011;37969;53.132;6.370;2024-02-21T05:57:49;48.30;;;10.35;;
51943;SDS011;37969;53.132;6.370;2024-02-21T06:00:16;44.10;;;10.35;;
51943;SDS011;37969;53.132;6.370;2024-02-21T06:02:43;42.63;;;11.55;;
51943;SDS011;37969;53.132;6.370;2024-02-21T06:05:10;41.67;;;9.55;;
51943;SDS011;37969;53.132;6.370;2024-02-21T06:07:39;55.80;;;10.80;;
51943;SDS011;37969;53.132;6.370;2024-02-21T06:10:07;43.08;;;10.43;;
51943;SDS011;37969;53.132;6.370;2024-02-21T06:12:34;42.28;;;10.43;;
51943;SDS011;37969;53.132;6.370;2024-02-21T06:15:02;51.33;;;10.65;;
51943;SDS011;37969;53.132;6.370;2024-02-21T06:17:29;40.90;;;10.93;;
51943;SDS011;37969;53.132;6.370;2024-02-21T06:19:57;40.83;;;10.70;;
51943;SDS011;37969;53.132;6.370;2024-02-21T06:22:25;45.90;;;12.40;;
51943;SDS011;37969;53.132;6.370;2024-02-21T06:24:52;54.65;;;12.23;;
51943;SDS011;37969;53.132;6.370;2024-02-21T06:27:21;58.58;;;13.07;;
51943;SDS011;37969;53.132;6.370;2024-02-21T06:29:49;48.17;;;13.32;;
51943;SDS011;37969;53.132;6.370;2024-02-21T06:32:15;45.13;;;12.90;;
51943;SDS011;37969;53.132;6.370;2024-02-21T06:34:41;51.17;;;13.25;;
51943;SDS011;37969;53.132;6.370;2024-02-21T06:37:08;40.25;;;12.57;;
51943;SDS011;37969;53.132;6.370;2024-02-21T06:39:37;48.53;;;13.20;;
51943;SDS011;37969;53.132;6.370;2024-02-21T06:42:06;40.53;;;12.80;;
51943;SDS011;37969;53.132;6.370;2024-02-21T06:44:33;56.72;;;12.77;;
51943;SDS011;37969;53.132;6.370;2024-02-21T06:47:05;63.25;;;14.25;;
51943;SDS011;37969;53.132;6.370;2024-02-21T06:49:34;57.33;;;12.63;;
51943;SDS011;37969;53.132;6.370;2024-02-21T06:52:03;54.42;;;14.95;;
51943;SDS011;37969;53.132;6.370;2024-02-21T06:54:29;60.92;;;18.05;;
51943;SDS011;37969;53.132;6.370;2024-02-21T06:56:58;80.63;;;20.60;;
51943;SDS011;37969;53.132;6.370;2024-02-21T06:59:25;74.82;;;20.08;;
51943;SDS011;37969;53.132;6.370;2024-02-21T07:01:53;85.53;;;21.70;;
51943;SDS011;37969;53.132;6.370;2024-02-21T07:04:21;93.35;;;21.25;;
51943;SDS011;37969;53.132;6.370;2024-02-21T07:06:47;83.90;;;23.27;;
51943;SDS011;37969;53.132;6.370;2024-02-21T07:09:13;84.45;;;21.90;;
51943;SDS011;37969;53.132;6.370;2024-02-21T07:11:40;91.70;;;23.23;;
51943;SDS011;37969;53.132;6.370;2024-02-21T07:14:09;75.80;;;22.55;;
51943;SDS011;37969;53.132;6.370;2024-02-21T07:16:35;84.35;;;21.92;;
51943;SDS011;37969;53.132;6.370;2024-02-21T07:19:02;74.03;;;19.27;;
51943;SDS011;37969;53.132;6.370;2024-02-21T07:21:30;75.50;;;20.45;;
51943;SDS011;37969;53.132;6.370;2024-02-21T07:23:58;72.70;;;18.92;;
51943;SDS011;37969;53.132;6.370;2024-02-21T07:26:24;92.43;;;20.58;;
51943;SDS011;37969;53.132;6.370;2024-02-21T07:28:51;67.82;;;16.55;;
51943;SDS011;37969;53.132;6.370;2024-02-21T07:31:17;68.90;;;17.70;;
51943;SDS011;37969;53.132;6.370;2024-02-21T07:33:43;66.82;;;16.48;;
51943;SDS011;37969;53.132;6.370;2024-02-21T07:36:10;55.83;;;16.17;;
51943;SDS011;37969;53.132;6.370;2024-02-21T07:38:40;54.10;;;15.27;;
51943;SDS011;37969;53.132;6.370;2024-02-21T07:41:06;51.65;;;15.35;;
51943;SDS011;37969;53.132;6.370;2024-02-21T07:43:35;44.42;;;12.43;;
51943;SDS011;37969;53.132;6.370;2024-02-21T07:46:02;47.50;;;11.93;;
51943;SDS011;37969;53.132;6.370;2024-02-21T07:48:29;48.78;;;11.52;;
51943;SDS011;37969;53.132;6.370;2024-02-21T07:50:56;47.28;;;11.25;;
51943;SDS011;37969;53.132;6.370;2024-02-21T07:53:22;54.22;;;12.25;;
51943;SDS011;37969;53.132;6.370;2024-02-21T07:55:49;43.33;;;9.20;;
51943;SDS011;37969;53.132;6.370;2024-02-21T07:58:15;36.45;;;10.27;;
51943;SDS011;37969;53.132;6.370;2024-02-21T08:00:47;48.90;;;10.05;;
51943;SDS011;37969;53.132;6.370;2024-02-21T08:03:15;29.02;;;9.05;;
51943;SDS011;37969;53.132;6.370;2024-02-21T08:05:44;29.17;;;8.43;;
51943;SDS011;37969;53.132;6.370;2024-02-21T08:08:12;29.75;;;8.80;;
51943;SDS011;37969;53.132;6.370;2024-02-21T08:10:45;36.10;;;8.55;;
51943;SDS011;37969;53.132;6.370;2024-02-21T08:13:11;32.25;;;8.93;;
51943;SDS011;37969;53.132;6.370;2024-02-21T08:15:44;34.95;;;9.98;;
51943;SDS011;37969;53.132;6.370;2024-02-21T08:18:15;36.78;;;9.23;;
51943;SDS011;37969;53.132;6.370;2024-02-21T08:23:15;32.58;;;10.20;;
51943;SDS011;37969;53.132;6.370;2024-02-21T08:25:44;32.00;;;10.23;;
51943;SDS011;37969;53.132;6.370;2024-02-21T08:28:12;46.08;;;11.88;;
51943;SDS011;37969;53.132;6.370;2024-02-21T08:30:39;37.45;;;10.75;;
51943;SDS011;37969;53.132;6.370;2024-02-21T08:33:13;33.25;;;12.23;;
51943;SDS011;37969;53.132;6.370;2024-02-21T08:35:42;38.75;;;12.77;;
51943;SDS011;37969;53.132;6.370;2024-02-21T08:38:11;45.22;;;13.35;;
51943;SDS011;37969;53.132;6.370;2024-02-21T08:40:40;34.47;;;13.32;;
51943;SDS011;37969;53.132;6.370;2024-02-21T08:43:06;35.08;;;15.27;;
51943;SDS011;37969;53.132;6.370;2024-02-21T08:45:33;38.38;;;17.02;;
51943;SDS011;37969;53.132;6.370;2024-02-21T08:48:01;43.20;;;17.40;;
51943;SDS011;37969;53.132;6.370;2024-02-21T08:50:29;40.65;;;19.13;;
51943;SDS011;37969;53.132;6.370;2024-02-21T08:52:55;43.47;;;20.63;;
51943;SDS011;37969;53.132;6.370;2024-02-21T08:55:27;53.80;;;20.25;;
51943;SDS011;37969;53.132;6.370;2024-02-21T08:57:56;53.10;;;21.77;;
51943;SDS011;37969;53.132;6.370;2024-02-21T09:00:25;42.08;;;21.38;;
51943;SDS011;37969;53.132;6.370;2024-02-21T09:02:52;40.40;;;20.75;;
51943;SDS011;37969;53.132;6.370;2024-02-21T09:05:21;45.58;;;20.63;;
51943;SDS011;37969;53.132;6.370;2024-02-21T09:07:47;47.28;;;23.10;;
51943;SDS011;37969;53.132;6.370;2024-02-21T09:10:14;47.53;;;23.30;;
51943;SDS011;37969;53.132;6.370;2024-02-21T09:12:40;50.97;;;23.17;;
51943;SDS011;37969;53.132;6.370;2024-02-21T09:15:07;41.83;;;21.85;;
51943;SDS011;37969;53.132;6.370;2024-02-21T09:17:33;46.17;;;23.00;;
51943;SDS011;37969;53.132;6.370;2024-02-21T09:19:59;47.10;;;23.92;;
51943;SDS011;37969;53.132;6.370;2024-02-21T09:22:28;42.97;;;23.65;;
51943;SDS011;37969;53.132;6.370;2024-02-21T09:24:58;42.65;;;23.67;;
51943;SDS011;37969;53.132;6.370;2024-02-21T09:27:26;39.83;;;23.98;;
51943;SDS011;37969;53.132;6.370;2024-02-21T09:29:55;43.40;;;22.27;;
51943;SDS011;37969;53.132;6.370;2024-02-21T09:32:23;39.85;;;23.55;;
51943;SDS011;37969;53.132;6.370;2024-02-21T09:34:50;39.17;;;21.58;;
51943;SDS011;37969;53.132;6.370;2024-02-21T09:37:19;43.10;;;24.02;;
51943;SDS011;37969;53.132;6.370;2024-02-21T09:39:45;37.42;;;23.33;;
51943;SDS011;37969;53.132;6.370;2024-02-21T09:42:19;41.35;;;23.63;;
51943;SDS011;37969;53.132;6.370;2024-02-21T09:44:48;43.40;;;23.52;;
51943;SDS011;37969;53.132;6.370;2024-02-21T09:47:24;50.60;;;23.05;;
51943;SDS011;37969;53.132;6.370;2024-02-21T09:49:51;42.72;;;22.10;;
51943;SDS011;37969;53.132;6.370;2024-02-21T09:52:22;39.80;;;22.02;;
51943;SDS011;37969;53.132;6.370;2024-02-21T09:54:50;39.47;;;22.80;;
51943;SDS011;37969;53.132;6.370;2024-02-21T09:57:19;34.95;;;21.05;;
51943;SDS011;37969;53.132;6.370;2024-02-21T09:59:51;36.60;;;22.42;;
51943;SDS011;37969;53.132;6.370;2024-02-21T10:02:18;33.40;;;22.38;;
51943;SDS011;37969;53.132;6.370;2024-02-21T10:04:45;41.47;;;22.33;;
51943;SDS011;37969;53.132;6.370;2024-02-21T10:07:13;36.00;;;21.55;;
51943;SDS011;37969;53.132;6.370;2024-02-21T10:09:44;35.78;;;21.65;;
51943;SDS011;37969;53.132;6.370;2024-02-21T10:12:14;34.45;;;21.90;;
51943;SDS011;37969;53.132;6.370;2024-02-21T10:14:44;35.72;;;22.90;;
51943;SDS011;37969;53.132;6.370;2024-02-21T10:17:16;34.22;;;20.73;;
51943;SDS011;37969;53.132;6.370;2024-02-21T10:19:45;40.67;;;22.80;;
51943;SDS011;37969;53.132;6.370;2024-02-21T10:22:13;38.40;;;21.55;;
51943;SDS011;37969;53.132;6.370;2024-02-21T10:24:41;37.45;;;22.40;;
51943;SDS011;37969;53.132;6.370;2024-02-21T10:27:09;34.30;;;22.70;;
51943;SDS011;37969;53.132;6.370;2024-02-21T10:29:38;36.25;;;23.70;;
51943;SDS011;37969;53.132;6.370;2024-02-21T10:32:08;37.13;;;23.48;;
51943;SDS011;37969;53.132;6.370;2024-02-21T10:34:37;35.80;;;24.05;;
51943;SDS011;37969;53.132;6.370;2024-02-21T10:37:05;41.15;;;24.25;;
51943;SDS011;37969;53.132;6.370;2024-02-21T10:39:33;43.65;;;25.92;;
51943;SDS011;37969;53.132;6.370;2024-02-21T10:42:02;39.97;;;24.73;;
51943;SDS011;37969;53.132;6.370;2024-02-21T10:44:34;39.65;;;25.27;;
51943;SDS011;37969;53.132;6.370;2024-02-21T10:47:08;46.05;;;25.55;;
51943;SDS011;37969;53.132;6.370;2024-02-21T10:49:38;43.42;;;26.52;;
51943;SDS011;37969;53.132;6.370;2024-02-21T10:52:08;36.67;;;25.80;;
51943;SDS011;37969;53.132;6.370;2024-02-21T10:54:39;45.92;;;25.67;;
51943;SDS011;37969;53.132;6.370;2024-02-21T10:57:15;36.55;;;24.90;;
51943;SDS011;37969;53.132;6.370;2024-02-21T10:59:47;38.88;;;24.98;;
51943;SDS011;37969;53.132;6.370;2024-02-21T11:02:19;40.00;;;25.98;;
51943;SDS011;37969;53.132;6.370;2024-02-21T11:04:46;41.80;;;24.20;;
51943;SDS011;37969;53.132;6.370;2024-02-21T11:07:17;34.63;;;23.25;;
51943;SDS011;37969;53.132;6.370;2024-02-21T11:09:50;38.13;;;22.87;;
51943;SDS011;37969;53.132;6.370;2024-02-21T11:12:21;40.38;;;23.92;;
51943;SDS011;37969;53.132;6.370;2024-02-21T11:14:53;31.58;;;21.50;;
51943;SDS011;37969;53.132;6.370;2024-02-21T11:17:32;39.70;;;22.65;;
51943;SDS011;37969;53.132;6.370;2024-02-21T11:20:12;34.65;;;22.48;;
51943;SDS011;37969;53.132;6.370;2024-02-21T11:22:41;32.95;;;21.65;;
51943;SDS011;37969;53.132;6.370;2024-02-21T11:25:10;34.45;;;21.45;;
51943;SDS011;37969;53.132;6.370;2024-02-21T11:27:46;33.17;;;20.98;;
51943;SDS011;37969;53.132;6.370;2024-02-21T11:30:13;31.10;;;20.02;;
51943;SDS011;37969;53.132;6.370;2024-02-21T11:32:44;37.42;;;21.25;;
51943;SDS011;37969;53.132;6.370;2024-02-21T11:35:18;33.80;;;19.55;;
51943;SDS011;37969;53.132;6.370;2024-02-21T11:37:48;34.80;;;18.42;;
51943;SDS011;37969;53.132;6.370;2024-02-21T11:40:15;34.38;;;19.20;;
51943;SDS011;37969;53.132;6.370;2024-02-21T11:42:41;23.17;;;16.20;;
51943;SDS011;37969;53.132;6.370;2024-02-21T11:45:10;27.77;;;17.48;;
51943;SDS011;37969;53.132;6.370;2024-02-21T11:47:37;29.00;;;17.77;;
51943;SDS011;37969;53.132;6.370;2024-02-21T11:50:10;28.98;;;17.55;;
51943;SDS011;37969;53.132;6.370;2024-02-21T11:52:38;29.33;;;17.08;;
51943;SDS011;37969;53.132;6.370;2024-02-21T11:55:06;24.90;;;17.08;;
51943;SDS011;37969;53.132;6.370;2024-02-21T11:57:33;22.90;;;16.33;;
51943;SDS011;37969;53.132;6.370;2024-02-21T12:00:12;22.25;;;14.15;;
51943;SDS011;37969;53.132;6.370;2024-02-21T12:02:39;20.60;;;15.30;;
51943;SDS011;37969;53.132;6.370;2024-02-21T12:05:06;25.95;;;14.48;;
51943;SDS011;37969;53.132;6.370;2024-02-21T12:07:35;22.48;;;14.25;;
51943;SDS011;37969;53.132;6.370;2024-02-21T12:10:07;28.92;;;14.82;;
51943;SDS011;37969;53.132;6.370;2024-02-21T12:12:36;24.42;;;13.35;;
51943;SDS011;37969;53.132;6.370;2024-02-21T12:15:03;24.60;;;14.38;;
51943;SDS011;37969;53.132;6.370;2024-02-21T12:17:33;23.83;;;13.23;;
51943;SDS011;37969;53.132;6.370;2024-02-21T12:20:03;19.52;;;13.32;;
51943;SDS011;37969;53.132;6.370;2024-02-21T12:22:35;20.63;;;12.93;;
51943;SDS011;37969;53.132;6.370;2024-02-21T12:25:04;24.52;;;12.93;;
51943;SDS011;37969;53.132;6.370;2024-02-21T12:27:33;23.90;;;13.20;;
51943;SDS011;37969;53.132;6.370;2024-02-21T12:30:03;19.35;;;13.23;;
51943;SDS011;37969;53.132;6.370;2024-02-21T12:32:35;19.88;;;13.30;;
51943;SDS011;37969;53.132;6.370;2024-02-21T12:35:02;16.83;;;11.55;;
51943;SDS011;37969;53.132;6.370;2024-02-21T12:37:29;21.80;;;12.77;;
51943;SDS011;37969;53.132;6.370;2024-02-21T12:39:55;26.88;;;13.73;;
51943;SDS011;37969;53.132;6.370;2024-02-21T12:44:51;28.33;;;13.30;;
51943;SDS011;37969;53.132;6.370;2024-02-21T12:47:18;22.95;;;12.43;;
51943;SDS011;37969;53.132;6.370;2024-02-21T12:49:49;24.75;;;12.50;;
51943;SDS011;37969;53.132;6.370;2024-02-21T12:52:16;23.15;;;12.90;;
51943;SDS011;37969;53.132;6.370;2024-02-21T12:54:43;20.17;;;13.32;;
51943;SDS011;37969;53.132;6.370;2024-02-21T12:57:13;21.08;;;13.10;;
51943;SDS011;37969;53.132;6.370;2024-02-21T12:59:40;23.88;;;13.38;;
51943;SDS011;37969;53.132;6.370;2024-02-21T13:02:07;18.63;;;11.10;;
51943;SDS011;37969;53.132;6.370;2024-02-21T13:04:33;21.30;;;11.15;;
51943;SDS011;37969;53.132;6.370;2024-02-21T13:07:00;20.42;;;11.15;;
51943;SDS011;37969;53.132;6.370;2024-02-21T13:09:27;16.73;;;10.48;;
51943;SDS011;37969;53.132;6.370;2024-02-21T13:11:54;14.00;;;9.90;;
51943;SDS011;37969;53.132;6.370;2024-02-21T13:14:22;17.73;;;10.57;;
51943;SDS011;37969;53.132;6.370;2024-02-21T13:16:49;13.55;;;8.52;;
51943;SDS011;37969;53.132;6.370;2024-02-21T13:19:15;17.88;;;10.00;;
51943;SDS011;37969;53.132;6.370;2024-02-21T13:21:45;14.02;;;9.10;;
51943;SDS011;37969;53.132;6.370;2024-02-21T13:24:12;15.68;;;9.93;;
51943;SDS011;37969;53.132;6.370;2024-02-21T13:26:41;13.73;;;8.90;;
51943;SDS011;37969;53.132;6.370;2024-02-21T13:29:11;15.75;;;8.65;;
51943;SDS011;37969;53.132;6.370;2024-02-21T13:31:37;16.90;;;8.38;;
51943;SDS011;37969;53.132;6.370;2024-02-21T13:34:03;11.18;;;8.05;;
51943;SDS011;37969;53.132;6.370;2024-02-21T13:36:31;11.68;;;8.07;;
51943;SDS011;37969;53.132;6.370;2024-02-21T13:38:59;11.57;;;7.93;;
51943;SDS011;37969;53.132;6.370;2024-02-21T13:41:26;14.23;;;7.72;;
51943;SDS011;37969;53.132;6.370;2024-02-21T13:43:52;12.15;;;8.05;;
51943;SDS011;37969;53.132;6.370;2024-02-21T13:46:20;11.68;;;8.07;;
51943;SDS011;37969;53.132;6.370;2024-02-21T13:48:47;11.75;;;7.68;;
51943;SDS011;37969;53.132;6.370;2024-02-21T13:51:15;12.95;;;8.27;;
51943;SDS011;37969;53.132;6.370;2024-02-21T13:53:42;9.13;;;7.53;;
51943;SDS011;37969;53.132;6.370;2024-02-21T13:56:11;10.82;;;7.70;;
51943;SDS011;37969;53.132;6.370;2024-02-21T13:58:38;12.73;;;7.53;;
51943;SDS011;37969;53.132;6.370;2024-02-21T14:01:07;11.65;;;7.68;;
51943;SDS011;37969;53.132;6.370;2024-02-21T14:03:34;9.70;;;7.20;;
51943;SDS011;37969;53.132;6.370;2024-02-21T14:06:01;10.88;;;7.18;;
51943;SDS011;37969;53.132;6.370;2024-02-21T14:08:29;11.93;;;7.25;;
51943;SDS011;37969;53.132;6.370;2024-02-21T14:10:56;12.40;;;7.18;;
51943;SDS011;37969;53.132;6.370;2024-02-21T14:13:25;10.23;;;7.07;;
51943;SDS011;37969;53.132;6.370;2024-02-21T14:18:23;8.30;;;6.93;;
51943;SDS011;37969;53.132;6.370;2024-02-21T14:20:50;10.15;;;6.97;;
51943;SDS011;37969;53.132;6.370;2024-02-21T14:23:17;8.10;;;7.20;;
51943;SDS011;37969;53.132;6.370;2024-02-21T14:25:46;8.50;;;7.50;;
51943;SDS011;37969;53.132;6.370;2024-02-21T14:28:15;12.20;;;7.47;;
51943;SDS011;37969;53.132;6.370;2024-02-21T14:30:43;9.25;;;7.65;;
51943;SDS011;37969;53.132;6.370;2024-02-21T14:33:09;10.82;;;7.03;;
51943;SDS011;37969;53.132;6.370;2024-02-21T14:35:37;11.48;;;7.38;;
51943;SDS011;37969;53.132;6.370;2024-02-21T14:38:04;12.32;;;7.57;;